Pagrindinis puslapis
METAR-TAF:

METAR-TAF

Oro uostai :

Tulča, Rumunija

platuma: 45-11N, ilguma: 028-49E, Aukštis: 4 m

Dabartinis oras

Ataskaita buvo paskelbta 18 minutes, ne 02:00 UTC
Vėjas 2 kt iš Šiaurės Rytų, svyruoja nuo Šiaurės/Šiaurės Vakarų ir Rytų
Temperatūra 2°C
Drėgmė 64%
Slėgis 1022 hPa
Matomumas 10 km arba daugiau

METAR: LRTC 090200Z AUTO 04002KT 340V080 9999 NCD 02/M04 Q1022

Laikas: 05:18 (02:18 UTC)

Prognozė

Ataskaita buvo paskelbta 12 valandos ir 18 minutes, ne 14:00 UTC
Prognozė galioja nuo 08 metu 15 UTC su 08 metu 24 UTC
Vėjas 10 kt iš Rytų/Pietryčių
Matomumas 10 km arba daugiau
nėra debesų žemiau 1500 m ir nėra kamuolinių lietaus debesų
Tapsmas
nuo 08 metu 15 UTC su 08 metu 17 UTC
Vėjas 4 kt nuo kintamojo kryptimis

TAF: LRTC 081400Z 0815/0824 11010KT CAVOK BECMG 0815/0817 VRB04KT

Orai ataskaitas ir orų prognozės (METAR, TAF).

turimą stotys yra geltonos ir raudonos taškus žemėlapyje.

Perkelti pele per norėdami pamatyti stoties vardą.

Tada spustelėkite, norėdami matyti oro stebėjimo ir prognozės.

Norėdami pakeisti žemėlapį: spustelėkite ant žalios mygtukų su juodo kryžiaus žemyn,; žalią mygtuką su brūkšneliu, jei norite nutolinti; arba žalių rodyklių gretimoms žemėlapius.


METAR-TAF: